sensor_id;sensor_type;location;lat;lon;timestamp;P1;durP1;ratioP1;P2;durP2;ratioP2
64903;SDS011;51401;48.882;12.598;2023-04-24T00:00:00;3.42;;;1.80;;
64903;SDS011;51401;48.882;12.598;2023-04-24T00:02:26;2.70;;;1.70;;
64903;SDS011;51401;48.882;12.598;2023-04-24T00:04:51;3.88;;;2.67;;
64903;SDS011;51401;48.882;12.598;2023-04-24T00:07:16;2.95;;;1.60;;
64903;SDS011;51401;48.882;12.598;2023-04-24T00:09:42;3.20;;;1.50;;
64903;SDS011;51401;48.882;12.598;2023-04-24T00:12:08;1.80;;;1.63;;
64903;SDS011;51401;48.882;12.598;2023-04-24T00:14:33;2.55;;;1.75;;
64903;SDS011;51401;48.882;12.598;2023-04-24T00:17:00;2.60;;;1.65;;
64903;SDS011;51401;48.882;12.598;2023-04-24T00:19:26;1.83;;;1.55;;
64903;SDS011;51401;48.882;12.598;2023-04-24T00:21:51;2.13;;;1.52;;
64903;SDS011;51401;48.882;12.598;2023-04-24T00:24:17;1.88;;;1.67;;
64903;SDS011;51401;48.882;12.598;2023-04-24T00:26:43;2.17;;;1.92;;
64903;SDS011;51401;48.882;12.598;2023-04-24T00:29:09;1.88;;;1.55;;
64903;SDS011;51401;48.882;12.598;2023-04-24T00:31:34;4.10;;;1.80;;
64903;SDS011;51401;48.882;12.598;2023-04-24T00:34:00;2.10;;;1.13;;
64903;SDS011;51401;48.882;12.598;2023-04-24T00:36:27;1.83;;;1.35;;
64903;SDS011;51401;48.882;12.598;2023-04-24T00:38:52;2.45;;;1.77;;
64903;SDS011;51401;48.882;12.598;2023-04-24T00:41:18;3.15;;;1.50;;
64903;SDS011;51401;48.882;12.598;2023-04-24T00:43:43;3.30;;;1.60;;
64903;SDS011;51401;48.882;12.598;2023-04-24T00:46:09;1.67;;;1.30;;
64903;SDS011;51401;48.882;12.598;2023-04-24T00:48:35;2.22;;;1.50;;
64903;SDS011;51401;48.882;12.598;2023-04-24T00:51:01;3.10;;;1.70;;
64903;SDS011;51401;48.882;12.598;2023-04-24T00:53:26;1.60;;;1.48;;
64903;SDS011;51401;48.882;12.598;2023-04-24T00:55:51;4.60;;;2.47;;
64903;SDS011;51401;48.882;12.598;2023-04-24T00:58:17;2.58;;;1.63;;
64903;SDS011;51401;48.882;12.598;2023-04-24T01:00:42;2.67;;;1.83;;
64903;SDS011;51401;48.882;12.598;2023-04-24T01:03:09;2.83;;;2.10;;
64903;SDS011;51401;48.882;12.598;2023-04-24T01:05:35;3.83;;;1.98;;
64903;SDS011;51401;48.882;12.598;2023-04-24T01:08:01;3.13;;;1.90;;
64903;SDS011;51401;48.882;12.598;2023-04-24T01:10:26;4.32;;;1.77;;
64903;SDS011;51401;48.882;12.598;2023-04-24T01:12:52;3.15;;;1.73;;
64903;SDS011;51401;48.882;12.598;2023-04-24T01:15:18;3.22;;;1.77;;
64903;SDS011;51401;48.882;12.598;2023-04-24T01:17:43;2.63;;;1.50;;
64903;SDS011;51401;48.882;12.598;2023-04-24T01:20:09;3.33;;;2.15;;
64903;SDS011;51401;48.882;12.598;2023-04-24T01:22:35;3.05;;;2.05;;
64903;SDS011;51401;48.882;12.598;2023-04-24T01:25:01;3.28;;;2.10;;
64903;SDS011;51401;48.882;12.598;2023-04-24T01:27:27;4.50;;;2.08;;
64903;SDS011;51401;48.882;12.598;2023-04-24T01:29:52;3.58;;;1.98;;
64903;SDS011;51401;48.882;12.598;2023-04-24T01:32:18;3.95;;;2.30;;
64903;SDS011;51401;48.882;12.598;2023-04-24T01:34:44;2.88;;;2.08;;
64903;SDS011;51401;48.882;12.598;2023-04-24T01:37:10;3.00;;;2.25;;
64903;SDS011;51401;48.882;12.598;2023-04-24T01:39:35;3.85;;;2.85;;
64903;SDS011;51401;48.882;12.598;2023-04-24T01:42:01;3.25;;;2.50;;
64903;SDS011;51401;48.882;12.598;2023-04-24T01:44:27;4.20;;;2.60;;
64903;SDS011;51401;48.882;12.598;2023-04-24T01:46:52;3.95;;;2.17;;
64903;SDS011;51401;48.882;12.598;2023-04-24T01:49:20;3.28;;;2.40;;
64903;SDS011;51401;48.882;12.598;2023-04-24T01:51:45;3.20;;;2.22;;
64903;SDS011;51401;48.882;12.598;2023-04-24T01:54:10;3.40;;;2.40;;
64903;SDS011;51401;48.882;12.598;2023-04-24T01:56:36;3.88;;;2.30;;
64903;SDS011;51401;48.882;12.598;2023-04-24T01:59:04;3.13;;;2.25;;
64903;SDS011;51401;48.882;12.598;2023-04-24T02:01:36;3.63;;;2.33;;
64903;SDS011;51401;48.882;12.598;2023-04-24T02:04:02;4.80;;;2.90;;
64903;SDS011;51401;48.882;12.598;2023-04-24T02:06:28;3.42;;;2.47;;
64903;SDS011;51401;48.882;12.598;2023-04-24T02:08:56;3.92;;;2.30;;
64903;SDS011;51401;48.882;12.598;2023-04-24T02:11:21;3.20;;;2.13;;
64903;SDS011;51401;48.882;12.598;2023-04-24T02:13:46;3.67;;;2.50;;
64903;SDS011;51401;48.882;12.598;2023-04-24T02:16:11;2.78;;;2.40;;
64903;SDS011;51401;48.882;12.598;2023-04-24T02:18:37;2.40;;;2.17;;
64903;SDS011;51401;48.882;12.598;2023-04-24T02:21:02;3.28;;;2.58;;
64903;SDS011;51401;48.882;12.598;2023-04-24T02:23:27;2.45;;;2.20;;
64903;SDS011;51401;48.882;12.598;2023-04-24T02:25:53;3.45;;;2.20;;
64903;SDS011;51401;48.882;12.598;2023-04-24T02:28:18;2.75;;;2.25;;
64903;SDS011;51401;48.882;12.598;2023-04-24T02:30:44;3.13;;;2.40;;
64903;SDS011;51401;48.882;12.598;2023-04-24T02:33:10;2.63;;;2.25;;
64903;SDS011;51401;48.882;12.598;2023-04-24T02:35:36;3.00;;;1.83;;
64903;SDS011;51401;48.882;12.598;2023-04-24T02:38:01;3.80;;;2.53;;
64903;SDS011;51401;48.882;12.598;2023-04-24T02:40:28;3.50;;;2.55;;
64903;SDS011;51401;48.882;12.598;2023-04-24T02:42:53;2.88;;;2.38;;
64903;SDS011;51401;48.882;12.598;2023-04-24T02:45:18;2.83;;;2.38;;
64903;SDS011;51401;48.882;12.598;2023-04-24T02:47:43;3.55;;;2.38;;
64903;SDS011;51401;48.882;12.598;2023-04-24T02:50:09;2.72;;;2.28;;
64903;SDS011;51401;48.882;12.598;2023-04-24T02:52:34;4.15;;;2.40;;
64903;SDS011;51401;48.882;12.598;2023-04-24T02:54:59;3.90;;;3.00;;
64903;SDS011;51401;48.882;12.598;2023-04-24T02:57:25;3.07;;;2.43;;
64903;SDS011;51401;48.882;12.598;2023-04-24T02:59:50;3.53;;;2.53;;
64903;SDS011;51401;48.882;12.598;2023-04-24T03:02:15;3.07;;;2.50;;
64903;SDS011;51401;48.882;12.598;2023-04-24T03:04:40;4.57;;;2.90;;
64903;SDS011;51401;48.882;12.598;2023-04-24T03:07:07;3.05;;;2.50;;
64903;SDS011;51401;48.882;12.598;2023-04-24T03:09:33;3.08;;;2.78;;
64903;SDS011;51401;48.882;12.598;2023-04-24T03:11:58;3.47;;;2.45;;
64903;SDS011;51401;48.882;12.598;2023-04-24T03:14:23;3.07;;;2.60;;
64903;SDS011;51401;48.882;12.598;2023-04-24T03:16:49;3.80;;;2.65;;
64903;SDS011;51401;48.882;12.598;2023-04-24T03:19:15;3.42;;;2.15;;
64903;SDS011;51401;48.882;12.598;2023-04-24T03:21:40;4.45;;;2.20;;
64903;SDS011;51401;48.882;12.598;2023-04-24T03:24:06;2.85;;;2.08;;
64903;SDS011;51401;48.882;12.598;2023-04-24T03:26:32;3.10;;;2.10;;
64903;SDS011;51401;48.882;12.598;2023-04-24T03:28:58;2.17;;;1.97;;
64903;SDS011;51401;48.882;12.598;2023-04-24T03:31:23;3.53;;;2.50;;
64903;SDS011;51401;48.882;12.598;2023-04-24T03:33:48;3.72;;;2.63;;
64903;SDS011;51401;48.882;12.598;2023-04-24T03:36:13;3.15;;;2.25;;
64903;SDS011;51401;48.882;12.598;2023-04-24T03:38:39;3.97;;;2.15;;
64903;SDS011;51401;48.882;12.598;2023-04-24T03:41:04;3.95;;;2.38;;
64903;SDS011;51401;48.882;12.598;2023-04-24T03:43:29;2.87;;;2.10;;
64903;SDS011;51401;48.882;12.598;2023-04-24T03:45:54;3.83;;;2.40;;
64903;SDS011;51401;48.882;12.598;2023-04-24T03:48:20;2.80;;;2.30;;
64903;SDS011;51401;48.882;12.598;2023-04-24T03:50:45;3.10;;;2.55;;
64903;SDS011;51401;48.882;12.598;2023-04-24T03:53:10;3.30;;;2.42;;
64903;SDS011;51401;48.882;12.598;2023-04-24T03:55:36;3.57;;;2.13;;
64903;SDS011;51401;48.882;12.598;2023-04-24T03:58:01;3.20;;;2.08;;
64903;SDS011;51401;48.882;12.598;2023-04-24T04:00:26;2.65;;;2.35;;
64903;SDS011;51401;48.882;12.598;2023-04-24T04:02:52;3.10;;;2.30;;
64903;SDS011;51401;48.882;12.598;2023-04-24T04:05:17;3.30;;;2.30;;
64903;SDS011;51401;48.882;12.598;2023-04-24T04:07:43;2.83;;;2.35;;
64903;SDS011;51401;48.882;12.598;2023-04-24T04:10:08;2.78;;;2.25;;
64903;SDS011;51401;48.882;12.598;2023-04-24T04:12:33;3.00;;;2.20;;
64903;SDS011;51401;48.882;12.598;2023-04-24T04:14:59;3.70;;;2.50;;
64903;SDS011;51401;48.882;12.598;2023-04-24T04:17:24;3.38;;;1.92;;
64903;SDS011;51401;48.882;12.598;2023-04-24T04:19:50;3.45;;;2.20;;
64903;SDS011;51401;48.882;12.598;2023-04-24T04:22:15;3.03;;;2.28;;
64903;SDS011;51401;48.882;12.598;2023-04-24T04:24:40;2.50;;;2.15;;
64903;SDS011;51401;48.882;12.598;2023-04-24T04:27:06;3.25;;;2.15;;
64903;SDS011;51401;48.882;12.598;2023-04-24T04:29:33;2.63;;;2.00;;
64903;SDS011;51401;48.882;12.598;2023-04-24T04:31:59;4.82;;;2.17;;
64903;SDS011;51401;48.882;12.598;2023-04-24T04:34:25;3.30;;;2.55;;
64903;SDS011;51401;48.882;12.598;2023-04-24T04:36:50;3.40;;;2.40;;
64903;SDS011;51401;48.882;12.598;2023-04-24T04:39:15;3.43;;;2.53;;
64903;SDS011;51401;48.882;12.598;2023-04-24T04:41:41;3.05;;;2.28;;
64903;SDS011;51401;48.882;12.598;2023-04-24T04:44:07;5.10;;;2.50;;
64903;SDS011;51401;48.882;12.598;2023-04-24T04:46:33;3.03;;;2.25;;
64903;SDS011;51401;48.882;12.598;2023-04-24T04:48:59;5.40;;;2.67;;
64903;SDS011;51401;48.882;12.598;2023-04-24T04:51:26;2.85;;;2.35;;
64903;SDS011;51401;48.882;12.598;2023-04-24T04:53:52;3.72;;;2.47;;
64903;SDS011;51401;48.882;12.598;2023-04-24T04:56:17;3.20;;;2.50;;
64903;SDS011;51401;48.882;12.598;2023-04-24T04:58:42;3.58;;;2.22;;
64903;SDS011;51401;48.882;12.598;2023-04-24T05:01:07;3.58;;;2.33;;
64903;SDS011;51401;48.882;12.598;2023-04-24T05:03:33;3.65;;;2.75;;
64903;SDS011;51401;48.882;12.598;2023-04-24T05:05:58;2.72;;;2.50;;
64903;SDS011;51401;48.882;12.598;2023-04-24T05:08:23;3.50;;;2.13;;
64903;SDS011;51401;48.882;12.598;2023-04-24T05:10:49;3.47;;;2.67;;
64903;SDS011;51401;48.882;12.598;2023-04-24T05:13:14;3.38;;;2.45;;
64903;SDS011;51401;48.882;12.598;2023-04-24T05:15:39;3.05;;;2.30;;
64903;SDS011;51401;48.882;12.598;2023-04-24T05:18:05;2.42;;;2.03;;
64903;SDS011;51401;48.882;12.598;2023-04-24T05:20:30;2.50;;;2.30;;
64903;SDS011;51401;48.882;12.598;2023-04-24T05:22:55;4.22;;;2.15;;
64903;SDS011;51401;48.882;12.598;2023-04-24T05:25:21;3.10;;;1.95;;
64903;SDS011;51401;48.882;12.598;2023-04-24T05:27:46;3.25;;;2.08;;
64903;SDS011;51401;48.882;12.598;2023-04-24T05:30:11;2.45;;;2.10;;
64903;SDS011;51401;48.882;12.598;2023-04-24T05:32:37;2.80;;;2.05;;
64903;SDS011;51401;48.882;12.598;2023-04-24T05:35:02;3.03;;;2.05;;
64903;SDS011;51401;48.882;12.598;2023-04-24T05:37:28;2.40;;;1.85;;
64903;SDS011;51401;48.882;12.598;2023-04-24T05:39:53;3.67;;;2.20;;
64903;SDS011;51401;48.882;12.598;2023-04-24T05:42:18;3.45;;;1.98;;
64903;SDS011;51401;48.882;12.598;2023-04-24T05:44:43;2.92;;;1.95;;
64903;SDS011;51401;48.882;12.598;2023-04-24T05:47:09;2.78;;;1.85;;
64903;SDS011;51401;48.882;12.598;2023-04-24T05:49:34;3.77;;;2.57;;
64903;SDS011;51401;48.882;12.598;2023-04-24T05:51:59;2.60;;;2.17;;
64903;SDS011;51401;48.882;12.598;2023-04-24T05:54:24;3.00;;;2.10;;
64903;SDS011;51401;48.882;12.598;2023-04-24T05:56:50;2.00;;;1.80;;
64903;SDS011;51401;48.882;12.598;2023-04-24T05:59:15;1.90;;;1.60;;
64903;SDS011;51401;48.882;12.598;2023-04-24T06:01:41;2.78;;;2.15;;
64903;SDS011;51401;48.882;12.598;2023-04-24T06:04:06;2.95;;;2.20;;
64903;SDS011;51401;48.882;12.598;2023-04-24T06:06:32;2.20;;;1.90;;
64903;SDS011;51401;48.882;12.598;2023-04-24T06:08:58;3.45;;;1.98;;
64903;SDS011;51401;48.882;12.598;2023-04-24T06:11:23;2.50;;;1.83;;
64903;SDS011;51401;48.882;12.598;2023-04-24T06:13:49;2.08;;;1.80;;
64903;SDS011;51401;48.882;12.598;2023-04-24T06:16:15;3.55;;;1.90;;
64903;SDS011;51401;48.882;12.598;2023-04-24T06:18:40;2.20;;;2.00;;
64903;SDS011;51401;48.882;12.598;2023-04-24T06:21:05;2.30;;;2.10;;
64903;SDS011;51401;48.882;12.598;2023-04-24T06:23:31;2.63;;;1.90;;
64903;SDS011;51401;48.882;12.598;2023-04-24T06:25:57;2.47;;;1.80;;
64903;SDS011;51401;48.882;12.598;2023-04-24T06:28:23;2.50;;;1.63;;
64903;SDS011;51401;48.882;12.598;2023-04-24T06:30:48;2.20;;;1.90;;
64903;SDS011;51401;48.882;12.598;2023-04-24T06:33:14;2.20;;;1.52;;
64903;SDS011;51401;48.882;12.598;2023-04-24T06:35:39;2.90;;;1.73;;
64903;SDS011;51401;48.882;12.598;2023-04-24T06:38:04;4.38;;;1.42;;
64903;SDS011;51401;48.882;12.598;2023-04-24T06:40:30;3.40;;;1.55;;
64903;SDS011;51401;48.882;12.598;2023-04-24T06:42:55;2.63;;;1.60;;
64903;SDS011;51401;48.882;12.598;2023-04-24T06:45:22;1.38;;;1.05;;
64903;SDS011;51401;48.882;12.598;2023-04-24T06:47:48;3.28;;;1.33;;
64903;SDS011;51401;48.882;12.598;2023-04-24T06:50:13;3.20;;;1.70;;
64903;SDS011;51401;48.882;12.598;2023-04-24T06:52:38;2.95;;;1.83;;
64903;SDS011;51401;48.882;12.598;2023-04-24T06:55:03;2.20;;;1.45;;
64903;SDS011;51401;48.882;12.598;2023-04-24T06:57:29;1.65;;;1.52;;
64903;SDS011;51401;48.882;12.598;2023-04-24T06:59:55;4.07;;;1.50;;
64903;SDS011;51401;48.882;12.598;2023-04-24T07:02:20;2.42;;;1.58;;
64903;SDS011;51401;48.882;12.598;2023-04-24T07:04:46;3.20;;;1.40;;
64903;SDS011;51401;48.882;12.598;2023-04-24T07:07:12;2.05;;;1.42;;
64903;SDS011;51401;48.882;12.598;2023-04-24T07:09:39;1.52;;;1.30;;
64903;SDS011;51401;48.882;12.598;2023-04-24T07:12:07;2.00;;;1.50;;
64903;SDS011;51401;48.882;12.598;2023-04-24T07:14:33;1.60;;;1.25;;
64903;SDS011;51401;48.882;12.598;2023-04-24T07:16:59;1.80;;;1.52;;
64903;SDS011;51401;48.882;12.598;2023-04-24T07:19:24;2.20;;;1.50;;
64903;SDS011;51401;48.882;12.598;2023-04-24T07:21:49;2.67;;;1.40;;
64903;SDS011;51401;48.882;12.598;2023-04-24T07:24:15;1.85;;;1.10;;
64903;SDS011;51401;48.882;12.598;2023-04-24T07:26:40;4.13;;;1.67;;
64903;SDS011;51401;48.882;12.598;2023-04-24T07:29:06;1.77;;;1.42;;
64903;SDS011;51401;48.882;12.598;2023-04-24T07:31:31;1.95;;;1.35;;
64903;SDS011;51401;48.882;12.598;2023-04-24T07:33:57;2.08;;;1.55;;
64903;SDS011;51401;48.882;12.598;2023-04-24T07:36:23;1.50;;;1.40;;
64903;SDS011;51401;48.882;12.598;2023-04-24T07:38:49;3.50;;;1.98;;
64903;SDS011;51401;48.882;12.598;2023-04-24T07:41:15;3.13;;;1.80;;
64903;SDS011;51401;48.882;12.598;2023-04-24T07:43:40;2.17;;;1.17;;
64903;SDS011;51401;48.882;12.598;2023-04-24T07:46:06;1.50;;;1.08;;
64903;SDS011;51401;48.882;12.598;2023-04-24T07:48:32;1.98;;;1.25;;
64903;SDS011;51401;48.882;12.598;2023-04-24T07:50:57;1.50;;;1.40;;
64903;SDS011;51401;48.882;12.598;2023-04-24T07:53:23;2.80;;;1.60;;
64903;SDS011;51401;48.882;12.598;2023-04-24T07:55:48;1.80;;;1.50;;
64903;SDS011;51401;48.882;12.598;2023-04-24T07:58:13;2.50;;;1.70;;
64903;SDS011;51401;48.882;12.598;2023-04-24T08:00:39;3.72;;;1.90;;
64903;SDS011;51401;48.882;12.598;2023-04-24T08:03:04;3.28;;;1.40;;
64903;SDS011;51401;48.882;12.598;2023-04-24T08:05:29;2.28;;;1.70;;
64903;SDS011;51401;48.882;12.598;2023-04-24T08:07:55;2.28;;;1.58;;
64903;SDS011;51401;48.882;12.598;2023-04-24T08:10:21;2.38;;;1.73;;
64903;SDS011;51401;48.882;12.598;2023-04-24T08:12:47;3.47;;;1.88;;
64903;SDS011;51401;48.882;12.598;2023-04-24T08:15:12;1.90;;;1.70;;
64903;SDS011;51401;48.882;12.598;2023-04-24T08:17:38;2.70;;;1.60;;
64903;SDS011;51401;48.882;12.598;2023-04-24T08:20:03;2.63;;;1.52;;
64903;SDS011;51401;48.882;12.598;2023-04-24T08:22:30;2.15;;;1.50;;
64903;SDS011;51401;48.882;12.598;2023-04-24T08:24:55;2.63;;;2.00;;
64903;SDS011;51401;48.882;12.598;2023-04-24T08:27:22;1.90;;;1.52;;
64903;SDS011;51401;48.882;12.598;2023-04-24T08:29:47;1.92;;;1.52;;
64903;SDS011;51401;48.882;12.598;2023-04-24T08:32:12;2.10;;;1.67;;
64903;SDS011;51401;48.882;12.598;2023-04-24T08:34:38;2.00;;;1.80;;
64903;SDS011;51401;48.882;12.598;2023-04-24T08:37:03;1.92;;;1.73;;
64903;SDS011;51401;48.882;12.598;2023-04-24T08:39:28;2.05;;;1.63;;
64903;SDS011;51401;48.882;12.598;2023-04-24T08:41:54;2.30;;;1.70;;
64903;SDS011;51401;48.882;12.598;2023-04-24T08:44:20;1.63;;;1.52;;
64903;SDS011;51401;48.882;12.598;2023-04-24T08:46:46;2.58;;;1.60;;
64903;SDS011;51401;48.882;12.598;2023-04-24T08:49:13;2.70;;;1.40;;
64903;SDS011;51401;48.882;12.598;2023-04-24T08:51:42;1.70;;;1.60;;
64903;SDS011;51401;48.882;12.598;2023-04-24T08:54:08;2.70;;;1.92;;
64903;SDS011;51401;48.882;12.598;2023-04-24T08:56:34;2.17;;;1.70;;
64903;SDS011;51401;48.882;12.598;2023-04-24T08:59:04;2.30;;;1.80;;
64903;SDS011;51401;48.882;12.598;2023-04-24T09:01:30;2.50;;;2.20;;
64903;SDS011;51401;48.882;12.598;2023-04-24T09:03:57;2.35;;;1.73;;
64903;SDS011;51401;48.882;12.598;2023-04-24T09:06:25;2.88;;;2.30;;
64903;SDS011;51401;48.882;12.598;2023-04-24T09:08:51;2.63;;;2.22;;
64903;SDS011;51401;48.882;12.598;2023-04-24T09:11:19;3.03;;;1.83;;
64903;SDS011;51401;48.882;12.598;2023-04-24T09:13:44;3.13;;;2.28;;
64903;SDS011;51401;48.882;12.598;2023-04-24T09:16:10;2.30;;;2.10;;
64903;SDS011;51401;48.882;12.598;2023-04-24T09:18:36;3.75;;;2.30;;
64903;SDS011;51401;48.882;12.598;2023-04-24T09:21:02;3.17;;;2.20;;
64903;SDS011;51401;48.882;12.598;2023-04-24T09:23:31;2.42;;;2.03;;
64903;SDS011;51401;48.882;12.598;2023-04-24T09:25:57;2.65;;;2.10;;
64903;SDS011;51401;48.882;12.598;2023-04-24T09:28:27;2.45;;;2.25;;
64903;SDS011;51401;48.882;12.598;2023-04-24T09:31:01;5.53;;;1.33;;
64903;SDS011;51401;48.882;12.598;2023-04-24T09:33:34;1.13;;;0.80;;
64903;SDS011;51401;48.882;12.598;2023-04-24T09:36:00;1.52;;;0.88;;
64903;SDS011;51401;48.882;12.598;2023-04-24T09:38:33;1.70;;;1.10;;
64903;SDS011;51401;48.882;12.598;2023-04-24T09:41:02;0.90;;;0.80;;
64903;SDS011;51401;48.882;12.598;2023-04-24T09:43:30;2.85;;;1.30;;
64903;SDS011;51401;48.882;12.598;2023-04-24T09:45:56;1.20;;;0.85;;
64903;SDS011;51401;48.882;12.598;2023-04-24T09:48:30;4.97;;;1.77;;
64903;SDS011;51401;48.882;12.598;2023-04-24T09:50:56;4.53;;;2.55;;
64903;SDS011;51401;48.882;12.598;2023-04-24T09:53:25;1.67;;;1.10;;
64903;SDS011;51401;48.882;12.598;2023-04-24T09:55:51;1.70;;;1.08;;
64903;SDS011;51401;48.882;12.598;2023-04-24T09:58:18;3.15;;;1.30;;
64903;SDS011;51401;48.882;12.598;2023-04-24T10:00:49;1.65;;;1.20;;
64903;SDS011;51401;48.882;12.598;2023-04-24T10:03:15;2.42;;;1.50;;
64903;SDS011;51401;48.882;12.598;2023-04-24T10:05:42;2.13;;;1.40;;
64903;SDS011;51401;48.882;12.598;2023-04-24T10:08:11;3.83;;;1.60;;
64903;SDS011;51401;48.882;12.598;2023-04-24T10:10:38;1.60;;;1.17;;
64903;SDS011;51401;48.882;12.598;2023-04-24T10:13:05;1.73;;;1.20;;
64903;SDS011;51401;48.882;12.598;2023-04-24T10:15:32;1.70;;;1.30;;
64903;SDS011;51401;48.882;12.598;2023-04-24T10:17:58;1.60;;;1.10;;
64903;SDS011;51401;48.882;12.598;2023-04-24T10:20:25;2.08;;;1.10;;
64903;SDS011;51401;48.882;12.598;2023-04-24T10:22:52;1.23;;;1.13;;
64903;SDS011;51401;48.882;12.598;2023-04-24T10:25:19;1.50;;;1.20;;
64903;SDS011;51401;48.882;12.598;2023-04-24T10:27:46;1.08;;;0.90;;
64903;SDS011;51401;48.882;12.598;2023-04-24T10:30:13;2.08;;;1.40;;
64903;SDS011;51401;48.882;12.598;2023-04-24T10:32:38;1.42;;;1.00;;
64903;SDS011;51401;48.882;12.598;2023-04-24T10:35:05;2.40;;;1.02;;
64903;SDS011;51401;48.882;12.598;2023-04-24T10:37:35;1.20;;;0.70;;
64903;SDS011;51401;48.882;12.598;2023-04-24T10:40:03;1.00;;;0.90;;
64903;SDS011;51401;48.882;12.598;2023-04-24T10:42:28;3.13;;;1.13;;
64903;SDS011;51401;48.882;12.598;2023-04-24T10:44:54;2.15;;;1.13;;
64903;SDS011;51401;48.882;12.598;2023-04-24T10:47:20;1.27;;;0.98;;
64903;SDS011;51401;48.882;12.598;2023-04-24T10:49:46;1.30;;;1.00;;
64903;SDS011;51401;48.882;12.598;2023-04-24T10:52:15;1.50;;;0.90;;
64903;SDS011;51401;48.882;12.598;2023-04-24T10:54:42;1.58;;;1.10;;
64903;SDS011;51401;48.882;12.598;2023-04-24T10:59:47;2.22;;;1.33;;
64903;SDS011;51401;48.882;12.598;2023-04-24T11:02:14;2.65;;;1.10;;
64903;SDS011;51401;48.882;12.598;2023-04-24T11:04:40;2.45;;;1.23;;
64903;SDS011;51401;48.882;12.598;2023-04-24T11:07:08;1.83;;;1.00;;
64903;SDS011;51401;48.882;12.598;2023-04-24T11:09:34;2.92;;;1.42;;
64903;SDS011;51401;48.882;12.598;2023-04-24T11:12:08;1.75;;;1.13;;
64903;SDS011;51401;48.882;12.598;2023-04-24T11:17:30;2.45;;;1.20;;
64903;SDS011;51401;48.882;12.598;2023-04-24T11:20:05;1.42;;;1.00;;
64903;SDS011;51401;48.882;12.598;2023-04-24T11:22:35;2.13;;;1.15;;
64903;SDS011;51401;48.882;12.598;2023-04-24T11:27:47;3.38;;;1.30;;
64903;SDS011;51401;48.882;12.598;2023-04-24T11:30:13;2.35;;;1.30;;
64903;SDS011;51401;48.882;12.598;2023-04-24T11:32:42;2.57;;;1.10;;
64903;SDS011;51401;48.882;12.598;2023-04-24T11:35:17;2.42;;;1.20;;
64903;SDS011;51401;48.882;12.598;2023-04-24T11:37:47;1.23;;;0.80;;
64903;SDS011;51401;48.882;12.598;2023-04-24T11:40:14;2.58;;;1.05;;
64903;SDS011;51401;48.882;12.598;2023-04-24T11:42:42;1.27;;;0.90;;
64903;SDS011;51401;48.882;12.598;2023-04-24T11:45:18;3.72;;;1.00;;
64903;SDS011;51401;48.882;12.598;2023-04-24T11:47:46;1.30;;;1.00;;
64903;SDS011;51401;48.882;12.598;2023-04-24T11:50:15;1.08;;;0.95;;
64903;SDS011;51401;48.882;12.598;2023-04-24T11:52:43;2.17;;;0.90;;
64903;SDS011;51401;48.882;12.598;2023-04-24T12:00:17;1.85;;;1.10;;
64903;SDS011;51401;48.882;12.598;2023-04-24T12:02:44;3.60;;;1.33;;
64903;SDS011;51401;48.882;12.598;2023-04-24T12:05:19;1.77;;;1.02;;
64903;SDS011;51401;48.882;12.598;2023-04-24T12:07:44;2.53;;;1.15;;
64903;SDS011;51401;48.882;12.598;2023-04-24T12:10:10;1.40;;;0.93;;
64903;SDS011;51401;48.882;12.598;2023-04-24T12:12:35;2.78;;;1.77;;
64903;SDS011;51401;48.882;12.598;2023-04-24T12:15:01;2.20;;;1.20;;
64903;SDS011;51401;48.882;12.598;2023-04-24T12:17:32;5.68;;;1.20;;
64903;SDS011;51401;48.882;12.598;2023-04-24T12:20:06;1.70;;;0.98;;
64903;SDS011;51401;48.882;12.598;2023-04-24T12:22:45;2.28;;;1.60;;
64903;SDS011;51401;48.882;12.598;2023-04-24T12:25:11;1.35;;;1.25;;
64903;SDS011;51401;48.882;12.598;2023-04-24T12:27:37;3.70;;;1.35;;
64903;SDS011;51401;48.882;12.598;2023-04-24T12:30:05;1.80;;;1.10;;
64903;SDS011;51401;48.882;12.598;2023-04-24T12:32:35;1.45;;;1.08;;
64903;SDS011;51401;48.882;12.598;2023-04-24T12:35:00;1.30;;;1.20;;
64903;SDS011;51401;48.882;12.598;2023-04-24T12:37:26;1.58;;;1.33;;
64903;SDS011;51401;48.882;12.598;2023-04-24T12:40:07;2.22;;;1.55;;
64903;SDS011;51401;48.882;12.598;2023-04-24T12:42:34;2.33;;;1.60;;
64903;SDS011;51401;48.882;12.598;2023-04-24T12:45:04;1.55;;;1.23;;
64903;SDS011;51401;48.882;12.598;2023-04-24T12:47:31;1.65;;;1.33;;
64903;SDS011;51401;48.882;12.598;2023-04-24T12:49:57;1.20;;;1.10;;
64903;SDS011;51401;48.882;12.598;2023-04-24T12:52:23;2.10;;;1.52;;
64903;SDS011;51401;48.882;12.598;2023-04-24T12:54:49;3.17;;;1.63;;
64903;SDS011;51401;48.882;12.598;2023-04-24T12:57:18;3.05;;;1.20;;
64903;SDS011;51401;48.882;12.598;2023-04-24T12:59:43;1.33;;;1.10;;
64903;SDS011;51401;48.882;12.598;2023-04-24T13:02:09;1.60;;;1.10;;
64903;SDS011;51401;48.882;12.598;2023-04-24T13:04:35;1.95;;;1.15;;
64903;SDS011;51401;48.882;12.598;2023-04-24T13:07:00;1.30;;;1.20;;
64903;SDS011;51401;48.882;12.598;2023-04-24T13:09:26;1.60;;;1.30;;
64903;SDS011;51401;48.882;12.598;2023-04-24T13:11:51;1.93;;;1.20;;
64903;SDS011;51401;48.882;12.598;2023-04-24T13:14:16;2.03;;;1.00;;
64903;SDS011;51401;48.882;12.598;2023-04-24T13:16:42;1.70;;;1.10;;
64903;SDS011;51401;48.882;12.598;2023-04-24T13:19:07;1.93;;;1.20;;
64903;SDS011;51401;48.882;12.598;2023-04-24T13:21:32;3.33;;;1.63;;
64903;SDS011;51401;48.882;12.598;2023-04-24T13:23:57;1.40;;;1.10;;
64903;SDS011;51401;48.882;12.598;2023-04-24T13:26:23;1.85;;;1.30;;
64903;SDS011;51401;48.882;12.598;2023-04-24T13:28:49;1.30;;;1.20;;
64903;SDS011;51401;48.882;12.598;2023-04-24T13:31:14;1.93;;;1.30;;
64903;SDS011;51401;48.882;12.598;2023-04-24T13:33:39;5.47;;;2.10;;
64903;SDS011;51401;48.882;12.598;2023-04-24T13:36:05;3.20;;;1.70;;
64903;SDS011;51401;48.882;12.598;2023-04-24T13:38:30;1.50;;;1.30;;
64903;SDS011;51401;48.882;12.598;2023-04-24T13:40:55;2.00;;;1.33;;
64903;SDS011;51401;48.882;12.598;2023-04-24T13:43:21;2.42;;;1.95;;
64903;SDS011;51401;48.882;12.598;2023-04-24T13:45:46;1.88;;;1.17;;
64903;SDS011;51401;48.882;12.598;2023-04-24T13:48:11;1.80;;;1.33;;
64903;SDS011;51401;48.882;12.598;2023-04-24T13:50:43;1.77;;;1.40;;
64903;SDS011;51401;48.882;12.598;2023-04-24T13:53:09;2.63;;;1.30;;
64903;SDS011;51401;48.882;12.598;2023-04-24T13:55:35;1.55;;;1.30;;
64903;SDS011;51401;48.882;12.598;2023-04-24T13:58:00;3.35;;;1.40;;
64903;SDS011;51401;48.882;12.598;2023-04-24T14:00:26;2.55;;;1.30;;
64903;SDS011;51401;48.882;12.598;2023-04-24T14:02:51;3.30;;;1.70;;
64903;SDS011;51401;48.882;12.598;2023-04-24T14:05:16;3.93;;;1.40;;
64903;SDS011;51401;48.882;12.598;2023-04-24T14:07:43;4.43;;;1.20;;
64903;SDS011;51401;48.882;12.598;2023-04-24T14:10:08;1.35;;;0.90;;
64903;SDS011;51401;48.882;12.598;2023-04-24T14:12:34;2.47;;;0.93;;
64903;SDS011;51401;48.882;12.598;2023-04-24T14:15:00;2.47;;;1.25;;
64903;SDS011;51401;48.882;12.598;2023-04-24T14:17:26;1.60;;;0.95;;
64903;SDS011;51401;48.882;12.598;2023-04-24T14:19:51;1.50;;;0.98;;
64903;SDS011;51401;48.882;12.598;2023-04-24T14:22:20;1.38;;;1.27;;
64903;SDS011;51401;48.882;12.598;2023-04-24T14:24:45;2.35;;;0.98;;
64903;SDS011;51401;48.882;12.598;2023-04-24T14:27:11;1.38;;;0.93;;
64903;SDS011;51401;48.882;12.598;2023-04-24T14:29:36;2.50;;;1.00;;
64903;SDS011;51401;48.882;12.598;2023-04-24T14:32:01;2.07;;;1.00;;
64903;SDS011;51401;48.882;12.598;2023-04-24T14:34:27;1.08;;;0.95;;
64903;SDS011;51401;48.882;12.598;2023-04-24T14:36:52;1.63;;;1.27;;
64903;SDS011;51401;48.882;12.598;2023-04-24T14:39:18;2.00;;;1.20;;